Time,TemperatureF,DewpointF,PressureIn,WindDirection,WindDirectionDegrees,WindSpeedMPH,WindSpeedGustMPH,Humidity,HourlyPrecipIn,Conditions,Clouds,dailyrainin,SoftwareType,DateUTC
2013-05-07 00:02:00,49.3,46.2,30.06,North,-999,-999.0,-999.0,89,-99.99,,,-99.99,open2300-1.11,2013-05-07 04:02:00,
2013-05-07 00:03:00,49.3,46.2,30.07,North,-999,-999.0,-999.0,89,-99.99,,,-99.99,open2300-1.11,2013-05-07 04:03:00,
2013-05-07 00:04:00,49.1,46.0,30.06,North,-999,-999.0,-999.0,89,-99.99,,,-99.99,open2300-1.11,2013-05-07 04:04:00,
2013-05-07 00:05:00,49.1,46.0,30.06,North,-999,-999.0,-999.0,89,-99.99,,,-99.99,open2300-1.11,2013-05-07 04:05:00,
2013-05-07 00:08:00,49.1,46.0,30.06,North,-999,-999.0,-999.0,89,-99.99,,,-99.99,open2300-1.11,2013-05-07 04:08:00,
2013-05-07 00:13:00,48.9,45.8,30.07,North,-999,-999.0,-999.0,89,-99.99,,,-99.99,open2300-1.11,2013-05-07 04:13:00,
2013-05-07 00:19:00,48.9,46.2,30.07,North,-999,-999.0,-999.0,90,-99.99,,,-99.99,open2300-1.11,2013-05-07 04:19:00,
2013-05-07 00:24:00,48.7,45.7,30.07,North,-999,-999.0,-999.0,89,-99.99,,,-99.99,open2300-1.11,2013-05-07 04:24:00,
2013-05-07 00:29:00,48.6,45.5,30.06,North,-999,-999.0,-999.0,89,-99.99,,,-99.99,open2300-1.11,2013-05-07 04:29:00,
2013-05-07 00:35:00,48.4,45.3,30.06,North,-999,-999.0,-999.0,89,-99.99,,,-99.99,open2300-1.11,2013-05-07 04:35:00,
2013-05-07 00:40:00,48.4,45.7,30.06,North,-999,-999.0,-999.0,90,-99.99,,,-99.99,open2300-1.11,2013-05-07 04:40:00,
2013-05-07 00:46:00,48.0,45.3,30.06,North,-999,-999.0,-999.0,90,-99.99,,,-99.99,open2300-1.11,2013-05-07 04:46:00,
2013-05-07 00:52:00,48.0,45.3,30.06,North,-999,-999.0,-999.0,90,-99.99,,,-99.99,open2300-1.11,2013-05-07 04:52:00,
2013-05-07 00:57:00,47.8,45.1,30.06,North,-999,-999.0,-999.0,90,-99.99,,,-99.99,open2300-1.11,2013-05-07 04:57:00,
2013-05-07 01:02:00,47.7,45.2,30.06,North,-999,-999.0,-999.0,91,-99.99,,,-99.99,open2300-1.11,2013-05-07 05:02:00,
2013-05-07 01:08:00,47.5,45.0,30.06,North,-999,-999.0,-999.0,91,-99.99,,,-99.99,open2300-1.11,2013-05-07 05:08:00,
2013-05-07 01:13:00,47.5,45.0,30.05,North,-999,-999.0,-999.0,91,-99.99,,,-99.99,open2300-1.11,2013-05-07 05:13:00,
2013-05-07 01:19:00,47.3,44.9,30.05,North,-999,-999.0,-999.0,91,-99.99,,,-99.99,open2300-1.11,2013-05-07 05:19:00,
2013-05-07 01:24:00,47.3,44.9,30.05,North,-999,-999.0,-999.0,91,-99.99,,,-99.99,open2300-1.11,2013-05-07 05:24:00,
2013-05-07 01:29:00,47.3,44.9,30.04,North,-999,-999.0,-999.0,91,-99.99,,,-99.99,open2300-1.11,2013-05-07 05:29:00,
2013-05-07 01:35:00,47.5,45.0,30.04,North,-999,-999.0,-999.0,91,-99.99,,,-99.99,open2300-1.11,2013-05-07 05:35:00,
2013-05-07 01:40:00,47.8,45.4,30.05,North,-999,-999.0,-999.0,91,-99.99,,,-99.99,open2300-1.11,2013-05-07 05:40:00,
2013-05-07 01:46:00,48.0,45.9,30.04,North,-999,-999.0,-999.0,92,-99.99,,,-99.99,open2300-1.11,2013-05-07 05:46:00,
2013-05-07 01:51:00,48.7,46.5,30.04,North,-999,-999.0,-999.0,92,-99.99,,,-99.99,open2300-1.11,2013-05-07 05:51:00,
2013-05-07 01:57:00,48.9,46.7,30.04,North,-999,-999.0,-999.0,92,-99.99,,,-99.99,open2300-1.11,2013-05-07 05:57:00,
2013-05-07 02:02:00,49.1,46.9,30.03,North,-999,-999.0,-999.0,92,-99.99,,,-99.99,open2300-1.11,2013-05-07 06:02:00,
2013-05-07 02:08:00,48.9,46.7,30.03,North,-999,-999.0,-999.0,92,-99.99,,,-99.99,open2300-1.11,2013-05-07 06:08:00,
2013-05-07 02:13:00,48.6,46.4,30.04,North,-999,-999.0,-999.0,92,-99.99,,,-99.99,open2300-1.11,2013-05-07 06:13:00,
2013-05-07 02:18:00,48.2,45.8,30.04,North,-999,-999.0,-999.0,91,-99.99,,,-99.99,open2300-1.11,2013-05-07 06:18:00,
2013-05-07 02:24:00,48.0,45.6,30.04,North,-999,-999.0,-999.0,91,-99.99,,,-99.99,open2300-1.11,2013-05-07 06:24:00,
2013-05-07 02:29:00,48.0,45.6,30.03,North,-999,-999.0,-999.0,91,-99.99,,,-99.99,open2300-1.11,2013-05-07 06:29:00,
2013-05-07 02:35:00,48.2,46.0,30.03,North,-999,-999.0,-999.0,92,-99.99,,,-99.99,open2300-1.11,2013-05-07 06:35:00,
2013-05-07 02:40:00,48.4,46.2,30.03,North,-999,-999.0,-999.0,92,-99.99,,,-99.99,open2300-1.11,2013-05-07 06:40:00,
2013-05-07 02:45:00,48.7,46.5,30.03,North,-999,-999.0,-999.0,92,-99.99,,,-99.99,open2300-1.11,2013-05-07 06:45:00,
2013-05-07 02:51:00,48.7,46.5,30.03,North,-999,-999.0,-999.0,92,-99.99,,,-99.99,open2300-1.11,2013-05-07 06:51:00,
2013-05-07 02:56:00,48.6,46.4,30.03,North,-999,-999.0,-999.0,92,-99.99,,,-99.99,open2300-1.11,2013-05-07 06:56:00,
2013-05-07 03:02:00,48.4,46.2,30.03,North,-999,-999.0,-999.0,92,-99.99,,,-99.99,open2300-1.11,2013-05-07 07:02:00,
2013-05-07 03:07:00,48.2,46.0,30.03,North,-999,-999.0,-999.0,92,-99.99,,,-99.99,open2300-1.11,2013-05-07 07:07:00,
2013-05-07 03:13:00,48.4,46.2,30.03,North,-999,-999.0,-999.0,92,-99.99,,,-99.99,open2300-1.11,2013-05-07 07:13:00,
2013-05-07 03:19:00,48.6,46.5,30.03,North,-999,-999.0,-999.0,92,-99.99,,,-99.99,open2300-1.11,2013-05-07 07:19:00,
2013-05-07 03:24:00,48.9,46.7,30.03,North,-999,-999.0,-999.0,92,-99.99,,,-99.99,open2300-1.11,2013-05-07 07:24:00,
2013-05-07 03:30:00,49.3,47.0,30.03,North,-999,-999.0,-999.0,92,-99.99,,,-99.99,open2300-1.11,2013-05-07 07:30:00,
2013-05-07 03:35:00,49.6,47.3,30.03,North,-999,-999.0,-999.0,92,-99.99,,,-99.99,open2300-1.11,2013-05-07 07:35:00,
2013-05-07 03:41:00,49.8,47.5,30.03,North,-999,-999.0,-999.0,92,-99.99,,,-99.99,open2300-1.11,2013-05-07 07:41:00,
2013-05-07 03:46:00,49.6,47.1,30.03,North,-999,-999.0,-999.0,91,-99.99,,,-99.99,open2300-1.11,2013-05-07 07:46:00,
2013-05-07 03:52:00,49.1,46.6,30.02,North,-999,-999.0,-999.0,91,-99.99,,,-99.99,open2300-1.11,2013-05-07 07:52:00,
2013-05-07 03:58:00,48.6,45.8,30.02,North,-999,-999.0,-999.0,90,-99.99,,,-99.99,open2300-1.11,2013-05-07 07:58:00,
2013-05-07 04:03:00,48.4,45.9,30.02,North,-999,-999.0,-999.0,91,-99.99,,,-99.99,open2300-1.11,2013-05-07 08:03:00,
2013-05-07 04:08:00,47.8,45.4,30.02,North,-999,-999.0,-999.0,91,-99.99,,,-99.99,open2300-1.11,2013-05-07 08:08:00,
2013-05-07 04:14:00,47.5,45.0,30.01,North,-999,-999.0,-999.0,91,-99.99,,,-99.99,open2300-1.11,2013-05-07 08:14:00,
2013-05-07 04:19:00,47.1,44.7,30.02,North,-999,-999.0,-999.0,91,-99.99,,,-99.99,open2300-1.11,2013-05-07 08:19:00,
2013-05-07 04:25:00,46.9,44.5,30.02,North,-999,-999.0,-999.0,91,-99.99,,,-99.99,open2300-1.11,2013-05-07 08:25:00,
2013-05-07 04:31:00,46.6,44.2,30.02,North,-999,-999.0,-999.0,91,-99.99,,,-99.99,open2300-1.11,2013-05-07 08:31:00,
2013-05-07 04:37:00,46.2,43.8,30.02,North,-999,-999.0,-999.0,91,-99.99,,,-99.99,open2300-1.11,2013-05-07 08:37:00,
2013-05-07 04:42:00,46.2,43.8,30.01,North,-999,-999.0,-999.0,91,-99.99,,,-99.99,open2300-1.11,2013-05-07 08:42:00,
2013-05-07 04:47:00,46.2,43.8,30.01,North,-999,-999.0,-999.0,91,-99.99,,,-99.99,open2300-1.11,2013-05-07 08:47:00,
2013-05-07 04:53:00,46.0,43.6,30.02,North,-999,-999.0,-999.0,91,-99.99,,,-99.99,open2300-1.11,2013-05-07 08:53:00,
2013-05-07 04:58:00,46.0,43.6,30.02,North,-999,-999.0,-999.0,91,-99.99,,,-99.99,open2300-1.11,2013-05-07 08:58:00,
2013-05-07 05:03:00,46.0,43.6,30.02,North,-999,-999.0,-999.0,91,-99.99,,,-99.99,open2300-1.11,2013-05-07 09:03:00,
2013-05-07 05:09:00,45.7,43.2,30.03,North,-999,-999.0,-999.0,91,-99.99,,,-99.99,open2300-1.11,2013-05-07 09:09:00,
2013-05-07 05:15:00,45.7,43.5,30.03,North,-999,-999.0,-999.0,92,-99.99,,,-99.99,open2300-1.11,2013-05-07 09:15:00,
2013-05-07 05:20:00,45.7,43.5,30.03,North,-999,-999.0,-999.0,92,-99.99,,,-99.99,open2300-1.11,2013-05-07 09:20:00,
2013-05-07 05:25:00,45.7,43.5,30.02,North,-999,-999.0,-999.0,92,-99.99,,,-99.99,open2300-1.11,2013-05-07 09:25:00,
2013-05-07 05:31:00,45.7,43.5,30.02,North,-999,-999.0,-999.0,92,-99.99,,,-99.99,open2300-1.11,2013-05-07 09:31:00,
2013-05-07 05:36:00,45.3,43.2,30.03,North,-999,-999.0,-999.0,92,-99.99,,,-99.99,open2300-1.11,2013-05-07 09:36:00,
2013-05-07 05:41:00,45.1,43.0,30.03,North,-999,-999.0,-999.0,92,-99.99,,,-99.99,open2300-1.11,2013-05-07 09:41:00,
2013-05-07 05:47:00,45.1,43.0,30.03,North,-999,-999.0,-999.0,92,-99.99,,,-99.99,open2300-1.11,2013-05-07 09:47:00,
2013-05-07 05:52:00,45.0,42.8,30.03,North,-999,-999.0,-999.0,92,-99.99,,,-99.99,open2300-1.11,2013-05-07 09:52:00,
2013-05-07 05:58:00,45.1,43.0,30.03,North,-999,-999.0,-999.0,92,-99.99,,,-99.99,open2300-1.11,2013-05-07 09:58:00,
2013-05-07 06:04:00,45.1,43.0,30.03,North,-999,-999.0,-999.0,92,-99.99,,,-99.99,open2300-1.11,2013-05-07 10:04:00,
2013-05-07 06:10:00,45.3,43.2,30.03,North,-999,-999.0,-999.0,92,-99.99,,,-99.99,open2300-1.11,2013-05-07 10:10:00,
2013-05-07 06:16:00,45.3,43.2,30.03,North,-999,-999.0,-999.0,92,-99.99,,,-99.99,open2300-1.11,2013-05-07 10:16:00,
2013-05-07 06:21:00,45.5,43.3,30.03,North,-999,-999.0,-999.0,92,-99.99,,,-99.99,open2300-1.11,2013-05-07 10:21:00,
2013-05-07 06:27:00,45.5,43.3,30.03,North,-999,-999.0,-999.0,92,-99.99,,,-99.99,open2300-1.11,2013-05-07 10:27:00,
2013-05-07 06:32:00,45.7,43.8,30.03,North,-999,-999.0,-999.0,93,-99.99,,,-99.99,open2300-1.11,2013-05-07 10:32:00,
2013-05-07 06:37:00,45.9,44.0,30.03,North,-999,-999.0,-999.0,93,-99.99,,,-99.99,open2300-1.11,2013-05-07 10:37:00,
2013-05-07 06:43:00,46.6,44.7,30.03,North,-999,-999.0,-999.0,93,-99.99,,,-99.99,open2300-1.11,2013-05-07 10:43:00,
2013-05-07 06:48:00,47.1,45.2,30.03,North,-999,-999.0,-999.0,93,-99.99,,,-99.99,open2300-1.11,2013-05-07 10:48:00,
2013-05-07 06:53:00,47.8,46.2,30.03,North,-999,-999.0,-999.0,94,-99.99,,,-99.99,open2300-1.11,2013-05-07 10:53:00,
2013-05-07 06:59:00,48.4,46.7,30.03,North,-999,-999.0,-999.0,94,-99.99,,,-99.99,open2300-1.11,2013-05-07 10:59:00,
2013-05-07 07:04:00,48.7,47.1,30.03,North,-999,-999.0,-999.0,94,-99.99,,,-99.99,open2300-1.11,2013-05-07 11:04:00,
2013-05-07 07:10:00,49.1,47.4,30.03,North,-999,-999.0,-999.0,94,-99.99,,,-99.99,open2300-1.11,2013-05-07 11:10:00,
2013-05-07 07:15:00,49.6,47.9,30.04,North,-999,-999.0,-999.0,94,-99.99,,,-99.99,open2300-1.11,2013-05-07 11:15:00,
2013-05-07 07:20:00,49.8,48.1,30.04,North,-999,-999.0,-999.0,94,-99.99,,,-99.99,open2300-1.11,2013-05-07 11:20:00,
2013-05-07 07:26:00,50.5,48.8,30.04,North,-999,-999.0,-999.0,94,-99.99,,,-99.99,open2300-1.11,2013-05-07 11:26:00,
2013-05-07 07:31:00,51.1,49.3,30.04,North,-999,-999.0,-999.0,94,-99.99,,,-99.99,open2300-1.11,2013-05-07 11:31:00,
2013-05-07 07:36:00,52.3,50.6,30.05,North,-999,-999.0,-999.0,94,-99.99,,,-99.99,open2300-1.11,2013-05-07 11:36:00,
2013-05-07 07:42:00,53.1,51.3,30.04,North,-999,-999.0,-999.0,94,-99.99,,,-99.99,open2300-1.11,2013-05-07 11:42:00,
2013-05-07 07:47:00,54.0,51.7,30.04,North,-999,-999.0,-999.0,92,-99.99,,,-99.99,open2300-1.11,2013-05-07 11:47:00,
2013-05-07 07:53:00,54.3,51.4,30.04,North,-999,-999.0,-999.0,90,-99.99,,,-99.99,open2300-1.11,2013-05-07 11:53:00,
2013-05-07 07:59:00,54.9,51.3,30.03,North,-999,-999.0,-999.0,88,-99.99,,,-99.99,open2300-1.11,2013-05-07 11:59:00,
2013-05-07 08:04:00,55.4,51.2,30.03,North,-999,-999.0,-999.0,86,-99.99,,,-99.99,open2300-1.11,2013-05-07 12:04:00,
2013-05-07 08:10:00,55.9,51.8,30.03,North,-999,-999.0,-999.0,86,-99.99,,,-99.99,open2300-1.11,2013-05-07 12:10:00,
2013-05-07 08:15:00,56.5,51.7,30.03,North,-999,-999.0,-999.0,84,-99.99,,,-99.99,open2300-1.11,2013-05-07 12:15:00,
2013-05-07 08:21:00,56.8,52.0,30.04,North,-999,-999.0,-999.0,84,-99.99,,,-99.99,open2300-1.11,2013-05-07 12:21:00,
2013-05-07 08:26:00,57.6,52.1,30.04,North,-999,-999.0,-999.0,82,-99.99,,,-99.99,open2300-1.11,2013-05-07 12:26:00,
2013-05-07 08:32:00,57.7,51.9,30.04,North,-999,-999.0,-999.0,81,-99.99,,,-99.99,open2300-1.11,2013-05-07 12:32:00,
2013-05-07 08:37:00,58.1,52.0,30.04,North,-999,-999.0,-999.0,80,-99.99,,,-99.99,open2300-1.11,2013-05-07 12:37:00,
2013-05-07 08:42:00,58.6,52.2,30.04,North,-999,-999.0,-999.0,79,-99.99,,,-99.99,open2300-1.11,2013-05-07 12:42:00,
2013-05-07 08:48:00,58.8,52.3,30.04,North,-999,-999.0,-999.0,79,-99.99,,,-99.99,open2300-1.11,2013-05-07 12:48:00,
2013-05-07 08:54:00,58.8,51.6,30.05,North,-999,-999.0,-999.0,77,-99.99,,,-99.99,open2300-1.11,2013-05-07 12:54:00,
2013-05-07 08:59:00,59.2,52.0,30.05,North,-999,-999.0,-999.0,77,-99.99,,,-99.99,open2300-1.11,2013-05-07 12:59:00,
2013-05-07 09:05:00,59.9,53.1,30.05,North,-999,-999.0,-999.0,78,-99.99,,,-99.99,open2300-1.11,2013-05-07 13:05:00,
2013-05-07 09:10:00,60.6,53.4,30.05,North,-999,-999.0,-999.0,77,-99.99,,,-99.99,open2300-1.11,2013-05-07 13:10:00,
2013-05-07 09:15:00,61.3,53.4,30.06,North,-999,-999.0,-999.0,75,-99.99,,,-99.99,open2300-1.11,2013-05-07 13:15:00,
2013-05-07 09:21:00,62.4,54.0,30.06,North,-999,-999.0,-999.0,74,-99.99,,,-99.99,open2300-1.11,2013-05-07 13:21:00,
2013-05-07 09:27:00,63.1,54.3,30.05,North,-999,-999.0,-999.0,73,-99.99,,,-99.99,open2300-1.11,2013-05-07 13:27:00,
2013-05-07 09:32:00,65.1,56.2,30.05,North,-999,-999.0,-999.0,73,-99.99,,,-99.99,open2300-1.11,2013-05-07 13:32:00,
2013-05-07 09:38:00,68.7,58.1,30.05,North,-999,-999.0,-999.0,69,-99.99,,,-99.99,open2300-1.11,2013-05-07 13:38:00,
2013-05-07 09:44:00,74.3,59.5,30.05,North,-999,-999.0,-999.0,60,-99.99,,,-99.99,open2300-1.11,2013-05-07 13:44:00,
2013-05-07 09:50:00,77.4,59.4,30.05,North,-999,-999.0,-999.0,54,-99.99,,,-99.99,open2300-1.11,2013-05-07 13:50:00,
2013-05-07 09:55:00,79.7,60.0,30.05,North,-999,-999.0,-999.0,51,-99.99,,,-99.99,open2300-1.11,2013-05-07 13:55:00,
2013-05-07 10:01:00,80.6,59.7,30.05,North,-999,-999.0,-999.0,49,-99.99,,,-99.99,open2300-1.11,2013-05-07 14:01:00,
2013-05-07 10:07:00,82.6,58.4,30.04,North,-999,-999.0,-999.0,44,-99.99,,,-99.99,open2300-1.11,2013-05-07 14:07:00,
2013-05-07 10:12:00,81.3,57.2,30.04,North,-999,-999.0,-999.0,44,-99.99,,,-99.99,open2300-1.11,2013-05-07 14:12:00,
2013-05-07 10:18:00,81.1,58.9,30.04,North,-999,-999.0,-999.0,47,-99.99,,,-99.99,open2300-1.11,2013-05-07 14:18:00,
2013-05-07 10:24:00,82.9,59.3,30.04,North,-999,-999.0,-999.0,45,-99.99,,,-99.99,open2300-1.11,2013-05-07 14:24:00,
2013-05-07 10:30:00,84.0,59.7,30.04,North,-999,-999.0,-999.0,44,-99.99,,,-99.99,open2300-1.11,2013-05-07 14:30:00,
2013-05-07 10:36:00,84.6,59.0,30.04,North,-999,-999.0,-999.0,42,-99.99,,,-99.99,open2300-1.11,2013-05-07 14:36:00,
2013-05-07 10:42:00,85.1,60.1,30.05,North,-999,-999.0,-999.0,43,-99.99,,,-99.99,open2300-1.11,2013-05-07 14:42:00,
2013-05-07 10:48:00,85.8,59.5,30.04,North,-999,-999.0,-999.0,41,-99.99,,,-99.99,open2300-1.11,2013-05-07 14:48:00,
2013-05-07 10:53:00,85.1,60.1,30.04,North,-999,-999.0,-999.0,43,-99.99,,,-99.99,open2300-1.11,2013-05-07 14:53:00,
2013-05-07 10:58:00,85.6,60.6,30.04,North,-999,-999.0,-999.0,43,-99.99,,,-99.99,open2300-1.11,2013-05-07 14:58:00,
2013-05-07 11:05:00,85.5,59.8,30.03,North,-999,-999.0,-999.0,42,-99.99,,,-99.99,open2300-1.11,2013-05-07 15:05:00,
2013-05-07 11:10:00,85.6,59.3,30.03,North,-999,-999.0,-999.0,41,-99.99,,,-99.99,open2300-1.11,2013-05-07 15:10:00,
2013-05-07 11:16:00,83.5,57.3,30.03,North,-999,-999.0,-999.0,41,-99.99,,,-99.99,open2300-1.11,2013-05-07 15:16:00,
2013-05-07 11:22:00,80.8,57.4,30.03,North,-999,-999.0,-999.0,45,-99.99,,,-99.99,open2300-1.11,2013-05-07 15:22:00,
2013-05-07 11:27:00,80.2,57.5,30.02,North,-999,-999.0,-999.0,46,-99.99,,,-99.99,open2300-1.11,2013-05-07 15:27:00,
2013-05-07 11:33:00,81.5,59.2,30.02,North,-999,-999.0,-999.0,47,-99.99,,,-99.99,open2300-1.11,2013-05-07 15:33:00,
2013-05-07 11:38:00,82.0,59.1,30.02,North,-999,-999.0,-999.0,46,-99.99,,,-99.99,open2300-1.11,2013-05-07 15:38:00,
2013-05-07 11:43:00,80.8,58.0,30.03,North,-999,-999.0,-999.0,46,-99.99,,,-99.99,open2300-1.11,2013-05-07 15:43:00,
2013-05-07 11:48:00,79.2,58.3,30.03,North,-999,-999.0,-999.0,49,-99.99,,,-99.99,open2300-1.11,2013-05-07 15:48:00,
2013-05-07 11:53:00,77.9,58.9,30.03,North,-999,-999.0,-999.0,52,-99.99,,,-99.99,open2300-1.11,2013-05-07 15:53:00,
2013-05-07 11:59:00,77.4,57.8,30.02,North,-999,-999.0,-999.0,51,-99.99,,,-99.99,open2300-1.11,2013-05-07 15:59:00,
2013-05-07 12:05:00,76.8,59.4,30.03,North,-999,-999.0,-999.0,55,-99.99,,,-99.99,open2300-1.11,2013-05-07 16:05:00,
2013-05-07 12:10:00,75.7,58.9,30.03,North,-999,-999.0,-999.0,56,-99.99,,,-99.99,open2300-1.11,2013-05-07 16:10:00,
2013-05-07 12:16:00,75.4,59.1,30.03,North,-999,-999.0,-999.0,57,-99.99,,,-99.99,open2300-1.11,2013-05-07 16:16:00,
2013-05-07 12:21:00,74.7,58.4,30.03,North,-999,-999.0,-999.0,57,-99.99,,,-99.99,open2300-1.11,2013-05-07 16:21:00,
2013-05-07 12:27:00,73.9,58.2,30.03,North,-999,-999.0,-999.0,58,-99.99,,,-99.99,open2300-1.11,2013-05-07 16:27:00,
2013-05-07 12:33:00,73.6,58.8,30.03,North,-999,-999.0,-999.0,60,-99.99,,,-99.99,open2300-1.11,2013-05-07 16:33:00,
2013-05-07 12:38:00,72.3,57.7,30.02,North,-999,-999.0,-999.0,60,-99.99,,,-99.99,open2300-1.11,2013-05-07 16:38:00,
2013-05-07 12:44:00,71.4,56.9,30.02,North,-999,-999.0,-999.0,60,-99.99,,,-99.99,open2300-1.11,2013-05-07 16:44:00,
2013-05-07 12:49:00,71.8,58.0,30.02,North,-999,-999.0,-999.0,62,-99.99,,,-99.99,open2300-1.11,2013-05-07 16:49:00,
2013-05-07 12:55:00,72.0,58.6,30.02,North,-999,-999.0,-999.0,63,-99.99,,,-99.99,open2300-1.11,2013-05-07 16:55:00,
2013-05-07 13:00:00,71.6,58.3,30.01,North,-999,-999.0,-999.0,63,-99.99,,,-99.99,open2300-1.11,2013-05-07 17:00:00,
2013-05-07 13:06:00,72.1,58.8,30.01,North,-999,-999.0,-999.0,63,-99.99,,,-99.99,open2300-1.11,2013-05-07 17:06:00,
2013-05-07 13:11:00,72.1,58.4,30.01,North,-999,-999.0,-999.0,62,-99.99,,,-99.99,open2300-1.11,2013-05-07 17:11:00,
2013-05-07 13:17:00,71.8,58.5,30.01,North,-999,-999.0,-999.0,63,-99.99,,,-99.99,open2300-1.11,2013-05-07 17:17:00,
2013-05-07 13:22:00,71.6,58.3,30.01,North,-999,-999.0,-999.0,63,-99.99,,,-99.99,open2300-1.11,2013-05-07 17:22:00,
2013-05-07 13:29:00,72.1,59.7,30.01,North,-999,-999.0,-999.0,65,-99.99,,,-99.99,open2300-1.11,2013-05-07 17:29:00,
2013-05-07 13:34:00,72.7,59.3,30.01,North,-999,-999.0,-999.0,63,-99.99,,,-99.99,open2300-1.11,2013-05-07 17:34:00,
2013-05-07 13:40:00,72.9,59.0,30.01,North,-999,-999.0,-999.0,62,-99.99,,,-99.99,open2300-1.11,2013-05-07 17:40:00,
2013-05-07 13:46:00,72.5,58.7,30.01,North,-999,-999.0,-999.0,62,-99.99,,,-99.99,open2300-1.11,2013-05-07 17:46:00,
2013-05-07 13:51:00,73.2,59.8,30.01,North,-999,-999.0,-999.0,63,-99.99,,,-99.99,open2300-1.11,2013-05-07 17:51:00,
2013-05-07 13:57:00,73.8,59.9,30.01,North,-999,-999.0,-999.0,62,-99.99,,,-99.99,open2300-1.11,2013-05-07 17:57:00,
2013-05-07 14:02:00,73.6,58.8,30.00,North,-999,-999.0,-999.0,60,-99.99,,,-99.99,open2300-1.11,2013-05-07 18:02:00,
2013-05-07 14:08:00,73.2,58.9,30.00,North,-999,-999.0,-999.0,61,-99.99,,,-99.99,open2300-1.11,2013-05-07 18:08:00,
2013-05-07 14:13:00,73.2,59.4,30.00,North,-999,-999.0,-999.0,62,-99.99,,,-99.99,open2300-1.11,2013-05-07 18:13:00,
2013-05-07 14:18:00,73.9,60.1,30.00,North,-999,-999.0,-999.0,62,-99.99,,,-99.99,open2300-1.11,2013-05-07 18:18:00,
2013-05-07 14:23:00,74.5,59.7,30.00,North,-999,-999.0,-999.0,60,-99.99,,,-99.99,open2300-1.11,2013-05-07 18:23:00,
2013-05-07 14:29:00,75.0,59.8,30.00,North,-999,-999.0,-999.0,59,-99.99,,,-99.99,open2300-1.11,2013-05-07 18:29:00,
2013-05-07 14:34:00,73.8,59.0,30.00,North,-999,-999.0,-999.0,60,-99.99,,,-99.99,open2300-1.11,2013-05-07 18:34:00,
2013-05-07 14:40:00,74.3,60.0,30.00,North,-999,-999.0,-999.0,61,-99.99,,,-99.99,open2300-1.11,2013-05-07 18:40:00,
2013-05-07 14:46:00,74.8,60.1,29.99,North,-999,-999.0,-999.0,60,-99.99,,,-99.99,open2300-1.11,2013-05-07 18:46:00,
2013-05-07 14:51:00,74.7,59.4,29.99,North,-999,-999.0,-999.0,59,-99.99,,,-99.99,open2300-1.11,2013-05-07 18:51:00,
2013-05-07 14:57:00,74.3,59.5,29.99,North,-999,-999.0,-999.0,60,-99.99,,,-99.99,open2300-1.11,2013-05-07 18:57:00,
2013-05-07 15:02:00,74.1,59.8,29.99,North,-999,-999.0,-999.0,61,-99.99,,,-99.99,open2300-1.11,2013-05-07 19:02:00,
2013-05-07 15:08:00,74.5,60.2,29.98,North,-999,-999.0,-999.0,61,-99.99,,,-99.99,open2300-1.11,2013-05-07 19:08:00,
2013-05-07 15:13:00,74.7,59.9,29.98,North,-999,-999.0,-999.0,60,-99.99,,,-99.99,open2300-1.11,2013-05-07 19:13:00,
2013-05-07 15:19:00,74.8,60.5,29.98,North,-999,-999.0,-999.0,61,-99.99,,,-99.99,open2300-1.11,2013-05-07 19:19:00,
2013-05-07 15:25:00,75.0,60.7,29.98,North,-999,-999.0,-999.0,61,-99.99,,,-99.99,open2300-1.11,2013-05-07 19:25:00,
2013-05-07 15:30:00,74.8,60.1,29.98,North,-999,-999.0,-999.0,60,-99.99,,,-99.99,open2300-1.11,2013-05-07 19:30:00,
2013-05-07 15:35:00,74.8,60.5,29.98,North,-999,-999.0,-999.0,61,-99.99,,,-99.99,open2300-1.11,2013-05-07 19:35:00,
2013-05-07 15:40:00,75.4,61.0,29.98,North,-999,-999.0,-999.0,61,-99.99,,,-99.99,open2300-1.11,2013-05-07 19:40:00,
2013-05-07 15:46:00,75.7,60.9,29.98,North,-999,-999.0,-999.0,60,-99.99,,,-99.99,open2300-1.11,2013-05-07 19:46:00,
2013-05-07 15:51:00,75.7,60.9,29.98,North,-999,-999.0,-999.0,60,-99.99,,,-99.99,open2300-1.11,2013-05-07 19:51:00,
2013-05-07 15:57:00,75.7,60.9,29.98,North,-999,-999.0,-999.0,60,-99.99,,,-99.99,open2300-1.11,2013-05-07 19:57:00,
2013-05-07 16:02:00,75.0,60.3,29.98,North,-999,-999.0,-999.0,60,-99.99,,,-99.99,open2300-1.11,2013-05-07 20:02:00,
2013-05-07 16:07:00,74.5,60.2,29.98,North,-999,-999.0,-999.0,61,-99.99,,,-99.99,open2300-1.11,2013-05-07 20:07:00,
2013-05-07 16:12:00,74.1,59.8,29.98,North,-999,-999.0,-999.0,61,-99.99,,,-99.99,open2300-1.11,2013-05-07 20:12:00,
2013-05-07 16:18:00,74.1,60.2,29.98,North,-999,-999.0,-999.0,62,-99.99,,,-99.99,open2300-1.11,2013-05-07 20:18:00,
2013-05-07 16:23:00,73.9,60.1,29.98,North,-999,-999.0,-999.0,62,-99.99,,,-99.99,open2300-1.11,2013-05-07 20:23:00,
2013-05-07 16:29:00,73.6,59.7,29.98,North,-999,-999.0,-999.0,62,-99.99,,,-99.99,open2300-1.11,2013-05-07 20:29:00,
2013-05-07 16:34:00,73.2,59.8,29.98,North,-999,-999.0,-999.0,63,-99.99,,,-99.99,open2300-1.11,2013-05-07 20:34:00,
2013-05-07 16:40:00,72.7,59.3,29.98,North,-999,-999.0,-999.0,63,-99.99,,,-99.99,open2300-1.11,2013-05-07 20:40:00,
2013-05-07 16:46:00,72.3,59.0,29.98,North,-999,-999.0,-999.0,63,-99.99,,,-99.99,open2300-1.11,2013-05-07 20:46:00,
2013-05-07 16:51:00,72.3,59.0,29.98,North,-999,-999.0,-999.0,63,-99.99,,,-99.99,open2300-1.11,2013-05-07 20:51:00,
2013-05-07 16:57:00,72.1,59.2,29.98,North,-999,-999.0,-999.0,64,-99.99,,,-99.99,open2300-1.11,2013-05-07 20:57:00,
2013-05-07 17:02:00,72.3,59.4,29.98,North,-999,-999.0,-999.0,64,-99.99,,,-99.99,open2300-1.11,2013-05-07 21:02:00,
2013-05-07 17:08:00,72.0,59.1,29.98,North,-999,-999.0,-999.0,64,-99.99,,,-99.99,open2300-1.11,2013-05-07 21:08:00,
2013-05-07 17:13:00,71.8,58.9,29.98,North,-999,-999.0,-999.0,64,-99.99,,,-99.99,open2300-1.11,2013-05-07 21:13:00,
2013-05-07 17:19:00,71.4,58.6,29.98,North,-999,-999.0,-999.0,64,-99.99,,,-99.99,open2300-1.11,2013-05-07 21:19:00,
2013-05-07 17:25:00,71.4,59.0,29.98,North,-999,-999.0,-999.0,65,-99.99,,,-99.99,open2300-1.11,2013-05-07 21:25:00,
2013-05-07 17:30:00,71.8,59.3,29.98,North,-999,-999.0,-999.0,65,-99.99,,,-99.99,open2300-1.11,2013-05-07 21:30:00,
2013-05-07 17:36:00,71.4,58.6,29.98,North,-999,-999.0,-999.0,64,-99.99,,,-99.99,open2300-1.11,2013-05-07 21:36:00,
2013-05-07 17:41:00,71.4,59.0,29.98,North,-999,-999.0,-999.0,65,-99.99,,,-99.99,open2300-1.11,2013-05-07 21:41:00,
2013-05-07 17:48:00,70.7,58.3,29.98,North,-999,-999.0,-999.0,65,-99.99,,,-99.99,open2300-1.11,2013-05-07 21:48:00,
2013-05-07 17:54:00,69.8,57.9,29.98,North,-999,-999.0,-999.0,66,-99.99,,,-99.99,open2300-1.11,2013-05-07 21:54:00,
2013-05-07 17:59:00,69.1,57.6,29.98,North,-999,-999.0,-999.0,67,-99.99,,,-99.99,open2300-1.11,2013-05-07 21:59:00,
2013-05-07 18:05:00,68.9,57.5,29.98,North,-999,-999.0,-999.0,67,-99.99,,,-99.99,open2300-1.11,2013-05-07 22:05:00,
2013-05-07 18:10:00,68.4,57.4,29.98,North,-999,-999.0,-999.0,68,-99.99,,,-99.99,open2300-1.11,2013-05-07 22:10:00,
2013-05-07 18:16:00,68.2,57.7,29.98,North,-999,-999.0,-999.0,69,-99.99,,,-99.99,open2300-1.11,2013-05-07 22:16:00,
2013-05-07 18:22:00,67.6,57.9,29.98,North,-999,-999.0,-999.0,71,-99.99,,,-99.99,open2300-1.11,2013-05-07 22:22:00,
2013-05-07 18:27:00,67.1,57.8,29.98,North,-999,-999.0,-999.0,72,-99.99,,,-99.99,open2300-1.11,2013-05-07 22:27:00,
2013-05-07 18:32:00,67.1,58.2,29.98,North,-999,-999.0,-999.0,73,-99.99,,,-99.99,open2300-1.11,2013-05-07 22:32:00,
2013-05-07 18:38:00,66.9,58.0,29.98,North,-999,-999.0,-999.0,73,-99.99,,,-99.99,open2300-1.11,2013-05-07 22:38:00,
2013-05-07 18:43:00,66.9,58.0,29.98,North,-999,-999.0,-999.0,73,-99.99,,,-99.99,open2300-1.11,2013-05-07 22:43:00,
2013-05-07 18:48:00,66.7,58.2,29.98,North,-999,-999.0,-999.0,74,-99.99,,,-99.99,open2300-1.11,2013-05-07 22:48:00,
2013-05-07 18:54:00,66.7,58.5,29.97,North,-999,-999.0,-999.0,75,-99.99,,,-99.99,open2300-1.11,2013-05-07 22:54:00,
2013-05-07 19:00:00,66.6,58.4,29.98,North,-999,-999.0,-999.0,75,-99.99,,,-99.99,open2300-1.11,2013-05-07 23:00:00,
2013-05-07 19:05:00,66.4,58.2,29.97,North,-999,-999.0,-999.0,75,-99.99,,,-99.99,open2300-1.11,2013-05-07 23:05:00,
2013-05-07 19:10:00,66.0,57.8,29.97,North,-999,-999.0,-999.0,75,-99.99,,,-99.99,open2300-1.11,2013-05-07 23:10:00,
2013-05-07 19:16:00,66.0,57.8,29.97,North,-999,-999.0,-999.0,75,-99.99,,,-99.99,open2300-1.11,2013-05-07 23:16:00,
2013-05-07 19:21:00,65.7,57.5,29.97,North,-999,-999.0,-999.0,75,-99.99,,,-99.99,open2300-1.11,2013-05-07 23:21:00,
2013-05-07 19:27:00,65.3,57.5,29.97,North,-999,-999.0,-999.0,76,-99.99,,,-99.99,open2300-1.11,2013-05-07 23:27:00,
2013-05-07 19:32:00,65.1,57.3,29.97,North,-999,-999.0,-999.0,76,-99.99,,,-99.99,open2300-1.11,2013-05-07 23:32:00,
2013-05-07 19:38:00,64.6,56.8,29.97,North,-999,-999.0,-999.0,76,-99.99,,,-99.99,open2300-1.11,2013-05-07 23:38:00,
2013-05-07 19:43:00,64.6,56.8,29.98,North,-999,-999.0,-999.0,76,-99.99,,,-99.99,open2300-1.11,2013-05-07 23:43:00,
2013-05-07 19:48:00,64.2,56.8,29.98,North,-999,-999.0,-999.0,77,-99.99,,,-99.99,open2300-1.11,2013-05-07 23:48:00,
2013-05-07 19:54:00,64.0,57.0,29.98,North,-999,-999.0,-999.0,78,-99.99,,,-99.99,open2300-1.11,2013-05-07 23:54:00,
2013-05-07 19:59:00,63.1,56.5,29.98,North,-999,-999.0,-999.0,79,-99.99,,,-99.99,open2300-1.11,2013-05-07 23:59:00,
2013-05-07 20:05:00,62.6,56.3,29.98,North,-999,-999.0,-999.0,80,-99.99,,,-99.99,open2300-1.11,2013-05-08 00:05:00,
2013-05-07 20:10:00,61.9,56.0,29.98,North,-999,-999.0,-999.0,81,-99.99,,,-99.99,open2300-1.11,2013-05-08 00:10:00,
2013-05-07 20:17:00,61.5,56.0,29.98,North,-999,-999.0,-999.0,82,-99.99,,,-99.99,open2300-1.11,2013-05-08 00:17:00,
2013-05-07 20:22:00,61.2,56.0,29.99,North,-999,-999.0,-999.0,83,-99.99,,,-99.99,open2300-1.11,2013-05-08 00:22:00,
2013-05-07 20:27:00,60.8,56.0,29.98,North,-999,-999.0,-999.0,84,-99.99,,,-99.99,open2300-1.11,2013-05-08 00:27:00,
2013-05-07 20:33:00,60.4,55.6,29.98,North,-999,-999.0,-999.0,84,-99.99,,,-99.99,open2300-1.11,2013-05-08 00:33:00,
2013-05-07 20:38:00,60.4,55.9,29.99,North,-999,-999.0,-999.0,85,-99.99,,,-99.99,open2300-1.11,2013-05-08 00:38:00,
2013-05-07 20:44:00,60.1,55.9,29.99,North,-999,-999.0,-999.0,86,-99.99,,,-99.99,open2300-1.11,2013-05-08 00:44:00,
2013-05-07 20:50:00,60.1,56.2,29.99,North,-999,-999.0,-999.0,87,-99.99,,,-99.99,open2300-1.11,2013-05-08 00:50:00,
2013-05-07 20:55:00,60.4,56.6,29.99,North,-999,-999.0,-999.0,87,-99.99,,,-99.99,open2300-1.11,2013-05-08 00:55:00,
2013-05-07 21:01:00,60.4,56.6,29.99,North,-999,-999.0,-999.0,87,-99.99,,,-99.99,open2300-1.11,2013-05-08 01:01:00,
2013-05-07 21:06:00,60.4,56.6,30.00,North,-999,-999.0,-999.0,87,-99.99,,,-99.99,open2300-1.11,2013-05-08 01:06:00,
2013-05-07 21:12:00,60.4,56.6,29.99,North,-999,-999.0,-999.0,87,-99.99,,,-99.99,open2300-1.11,2013-05-08 01:12:00,
2013-05-07 21:17:00,60.3,56.4,30.00,North,-999,-999.0,-999.0,87,-99.99,,,-99.99,open2300-1.11,2013-05-08 01:17:00,
2013-05-07 21:23:00,60.1,56.2,30.00,North,-999,-999.0,-999.0,87,-99.99,,,-99.99,open2300-1.11,2013-05-08 01:23:00,
2013-05-07 21:28:00,60.1,56.2,30.00,North,-999,-999.0,-999.0,87,-99.99,,,-99.99,open2300-1.11,2013-05-08 01:28:00,
2013-05-07 21:33:00,60.1,56.5,30.00,North,-999,-999.0,-999.0,88,-99.99,,,-99.99,open2300-1.11,2013-05-08 01:33:00,
2013-05-07 21:39:00,60.1,56.5,30.00,North,-999,-999.0,-999.0,88,-99.99,,,-99.99,open2300-1.11,2013-05-08 01:39:00,
2013-05-07 21:45:00,60.1,56.5,30.00,North,-999,-999.0,-999.0,88,-99.99,,,-99.99,open2300-1.11,2013-05-08 01:45:00,
2013-05-07 21:51:00,60.1,56.5,30.00,North,-999,-999.0,-999.0,88,-99.99,,,-99.99,open2300-1.11,2013-05-08 01:51:00,
2013-05-07 21:56:00,60.1,56.9,30.00,North,-999,-999.0,-999.0,89,-99.99,,,-99.99,open2300-1.11,2013-05-08 01:56:00,
2013-05-07 22:02:00,60.1,56.9,30.00,North,-999,-999.0,-999.0,89,-99.99,,,-99.99,open2300-1.11,2013-05-08 02:02:00,
2013-05-07 22:08:00,60.1,56.9,30.00,North,-999,-999.0,-999.0,89,-99.99,,,-99.99,open2300-1.11,2013-05-08 02:08:00,
2013-05-07 22:14:00,60.1,56.5,30.01,North,-999,-999.0,-999.0,88,-99.99,,,-99.99,open2300-1.11,2013-05-08 02:14:00,
2013-05-07 22:20:00,60.1,56.5,30.00,North,-999,-999.0,-999.0,88,-99.99,,,-99.99,open2300-1.11,2013-05-08 02:20:00,
2013-05-07 22:25:00,60.1,56.2,30.00,North,-999,-999.0,-999.0,87,-99.99,,,-99.99,open2300-1.11,2013-05-08 02:25:00,
2013-05-07 22:31:00,59.9,56.0,30.00,North,-999,-999.0,-999.0,87,-99.99,,,-99.99,open2300-1.11,2013-05-08 02:31:00,
2013-05-07 22:36:00,59.7,55.9,30.00,North,-999,-999.0,-999.0,87,-99.99,,,-99.99,open2300-1.11,2013-05-08 02:36:00,
2013-05-07 22:42:00,59.5,55.7,30.00,North,-999,-999.0,-999.0,87,-99.99,,,-99.99,open2300-1.11,2013-05-08 02:42:00,
2013-05-07 22:48:00,59.5,55.7,30.00,North,-999,-999.0,-999.0,87,-99.99,,,-99.99,open2300-1.11,2013-05-08 02:48:00,
2013-05-07 22:54:00,59.5,56.0,29.99,North,-999,-999.0,-999.0,88,-99.99,,,-99.99,open2300-1.11,2013-05-08 02:54:00,
2013-05-07 22:59:00,59.2,55.7,29.99,North,-999,-999.0,-999.0,88,-99.99,,,-99.99,open2300-1.11,2013-05-08 02:59:00,
2013-05-07 23:05:00,59.0,55.5,29.99,North,-999,-999.0,-999.0,88,-99.99,,,-99.99,open2300-1.11,2013-05-08 03:05:00,
2013-05-07 23:11:00,58.8,55.6,29.99,North,-999,-999.0,-999.0,89,-99.99,,,-99.99,open2300-1.11,2013-05-08 03:11:00,
2013-05-07 23:16:00,58.8,55.6,29.98,North,-999,-999.0,-999.0,89,-99.99,,,-99.99,open2300-1.11,2013-05-08 03:16:00,
2013-05-07 23:22:00,59.0,55.8,29.98,North,-999,-999.0,-999.0,89,-99.99,,,-99.99,open2300-1.11,2013-05-08 03:22:00,
2013-05-07 23:27:00,59.4,56.2,29.98,North,-999,-999.0,-999.0,89,-99.99,,,-99.99,open2300-1.11,2013-05-08 03:27:00,
2013-05-07 23:33:00,59.4,55.8,29.98,North,-999,-999.0,-999.0,88,-99.99,,,-99.99,open2300-1.11,2013-05-08 03:33:00,
2013-05-07 23:38:00,59.4,55.8,29.98,North,-999,-999.0,-999.0,88,-99.99,,,-99.99,open2300-1.11,2013-05-08 03:38:00,
2013-05-07 23:44:00,59.4,56.2,29.98,North,-999,-999.0,-999.0,89,-99.99,,,-99.99,open2300-1.11,2013-05-08 03:44:00,
2013-05-07 23:49:00,59.4,56.2,29.98,North,-999,-999.0,-999.0,89,-99.99,,,-99.99,open2300-1.11,2013-05-08 03:49:00,
2013-05-07 23:55:00,59.4,56.2,29.98,North,-999,-999.0,-999.0,89,-99.99,,,-99.99,open2300-1.11,2013-05-08 03:55:00,